createdAt,value
2022-10-19T00:04:08.840Z,12.91
2022-10-19T00:09:10.335Z,12.94
2022-10-19T00:14:11.670Z,12.85
2022-10-19T00:19:14.304Z,12.75
2022-10-19T00:24:13.043Z,12.48
2022-10-19T00:29:13.765Z,12.30
2022-10-19T00:34:12.738Z,11.95
2022-10-19T00:39:14.651Z,11.69
2022-10-19T00:44:13.434Z,11.58
2022-10-19T00:49:28.756Z,11.40
2022-10-19T00:54:28.011Z,11.27
2022-10-19T00:59:31.763Z,11.09
2022-10-19T01:04:33.949Z,10.95
2022-10-19T01:09:32.690Z,10.98
2022-10-19T01:14:59.094Z,10.80
2022-10-19T01:20:19.668Z,10.83
2022-10-19T01:25:37.276Z,10.75
2022-10-19T01:30:45.235Z,10.61
2022-10-19T01:35:43.913Z,10.40
2022-10-19T01:40:59.266Z,10.25
2022-10-19T01:46:21.149Z,10.20
2022-10-19T01:51:27.054Z,10.22
2022-10-19T01:56:28.359Z,10.04
2022-10-19T02:01:33.152Z,9.92
2022-10-19T02:06:32.106Z,10.01
2022-10-19T02:11:31.791Z,10.11
2022-10-19T02:16:38.680Z,10.20
2022-10-19T02:21:37.460Z,10.35
2022-10-19T02:26:36.215Z,10.29
2022-10-19T02:32:25.007Z,10.23
2022-10-19T02:37:25.581Z,10.17
2022-10-19T02:42:51.155Z,10.00
2022-10-19T02:47:55.355Z,9.98
2022-10-19T02:52:54.114Z,10.19
2022-10-19T02:57:53.801Z,10.11
2022-10-19T03:02:52.689Z,10.07
2022-10-19T03:07:51.479Z,10.20
2022-10-19T03:12:50.193Z,10.23
2022-10-19T03:17:53.058Z,10.13
2022-10-19T03:27:55.650Z,10.22
2022-10-19T03:32:54.340Z,10.32
2022-10-19T03:37:53.106Z,10.50
2022-10-19T03:42:51.824Z,10.41
2022-10-19T03:47:51.406Z,10.41
2022-10-19T03:52:50.244Z,10.58
2022-10-19T03:57:48.996Z,10.51
2022-10-19T04:02:47.732Z,10.50
2022-10-19T04:07:46.400Z,10.56
2022-10-19T04:12:45.078Z,10.90
2022-10-19T04:17:45.693Z,10.95
2022-10-19T04:22:47.535Z,10.81
2022-10-19T04:27:46.258Z,10.87
2022-10-19T04:32:45.158Z,12.40
2022-10-19T04:37:44.205Z,13.94
2022-10-19T04:42:43.149Z,14.31
2022-10-19T04:47:41.855Z,14.32
2022-10-19T04:52:40.513Z,15.02
2022-10-19T04:57:39.170Z,15.10
2022-10-19T05:02:43.074Z,14.92
2022-10-19T05:07:41.769Z,13.27
2022-10-19T05:12:40.417Z,11.87
2022-10-19T05:17:39.236Z,11.41
2022-10-19T05:22:39.111Z,11.42
2022-10-19T05:27:37.783Z,11.05
2022-10-19T05:32:36.548Z,10.89
2022-10-19T05:37:35.443Z,11.02
2022-10-19T05:42:36.684Z,10.78
2022-10-19T05:47:38.577Z,10.99
2022-10-19T05:52:40.441Z,10.97
2022-10-19T05:57:39.207Z,11.04
2022-10-19T06:02:37.901Z,11.22
2022-10-19T06:07:36.981Z,11.19
2022-10-19T06:12:35.788Z,11.13
2022-10-19T06:17:34.892Z,11.19
2022-10-19T06:22:33.746Z,11.26
2022-10-19T06:27:32.847Z,11.02
2022-10-19T06:32:34.267Z,11.03
2022-10-19T06:37:33.208Z,10.87
2022-10-19T06:42:32.718Z,10.76
2022-10-19T06:47:33.343Z,10.93
2022-10-19T06:52:33.716Z,10.84
2022-10-19T06:57:33.084Z,11.41
2022-10-19T07:02:33.509Z,11.79
2022-10-19T07:07:32.522Z,11.87
2022-10-19T07:12:31.523Z,11.95
2022-10-19T07:17:30.343Z,11.81
2022-10-19T07:22:28.976Z,12.02
2022-10-19T07:27:28.086Z,12.12
2022-10-19T07:32:29.175Z,11.92
2022-10-19T07:37:27.878Z,11.99
2022-10-19T07:42:30.463Z,12.12
2022-10-19T07:47:29.199Z,12.17
2022-10-19T07:52:28.543Z,12.22
2022-10-19T07:57:28.740Z,12.08
2022-10-19T08:02:34.898Z,11.91
2022-10-19T08:07:46.074Z,12.06
2022-10-19T08:12:44.789Z,12.08
2022-10-19T08:17:43.438Z,11.88
2022-10-19T08:22:45.169Z,11.85
2022-10-19T08:27:43.871Z,11.92
2022-10-19T08:32:42.610Z,11.99
2022-10-19T08:37:45.294Z,12.05
2022-10-19T08:42:55.562Z,12.18
2022-10-19T08:48:19.754Z,12.10
2022-10-19T08:53:37.339Z,12.03
2022-10-19T08:58:45.140Z,12.34
2022-10-19T09:04:02.073Z,12.68
2022-10-19T09:09:00.982Z,12.46
2022-10-19T09:14:18.342Z,12.57
2022-10-19T09:19:30.859Z,12.40
2022-10-19T09:24:44.449Z,12.13
2022-10-19T09:29:52.622Z,12.04
2022-10-19T09:34:54.357Z,12.33
2022-10-19T09:39:55.497Z,12.82
2022-10-19T09:44:55.429Z,13.03
2022-10-19T09:50:08.026Z,13.35
2022-10-19T09:55:25.283Z,13.16
2022-10-19T10:00:31.175Z,12.66
2022-10-19T10:05:36.117Z,12.58
2022-10-19T10:10:42.491Z,12.56
2022-10-19T10:15:48.289Z,12.57
2022-10-19T10:21:14.162Z,12.90
2022-10-19T10:26:19.998Z,13.20
2022-10-19T10:31:30.408Z,13.55
2022-10-19T10:36:32.004Z,13.31
2022-10-19T10:41:37.485Z,13.28
2022-10-19T10:46:46.684Z,12.82
2022-10-19T10:51:50.667Z,12.65
2022-10-19T10:57:06.279Z,12.95
2022-10-19T11:02:42.887Z,12.70
2022-10-19T11:07:45.656Z,12.91
2022-10-19T11:12:49.651Z,13.03
2022-10-19T11:17:57.022Z,13.18
2022-10-19T11:23:07.416Z,13.33
2022-10-19T11:28:29.343Z,13.40
2022-10-19T11:33:49.447Z,12.87
2022-10-19T11:39:27.461Z,12.64
2022-10-19T11:44:26.185Z,13.04
2022-10-19T11:50:03.016Z,13.07
2022-10-19T11:55:14.958Z,13.04
2022-10-19T12:00:39.062Z,12.98
2022-10-19T12:05:52.435Z,13.33
2022-10-19T12:11:21.036Z,13.56
2022-10-19T12:16:24.491Z,13.67
2022-10-19T12:21:29.419Z,13.76
2022-10-19T12:26:32.744Z,13.83
2022-10-19T12:31:32.641Z,13.90
2022-10-19T12:36:43.543Z,13.94
2022-10-19T12:41:53.788Z,13.91
2022-10-19T12:47:22.717Z,13.44
2022-10-19T12:52:49.073Z,13.20
2022-10-19T12:57:56.559Z,13.48
2022-10-19T13:03:03.252Z,13.31
2022-10-19T13:08:06.977Z,12.99
2022-10-19T13:13:46.518Z,12.99
2022-10-19T13:19:14.158Z,12.95
2022-10-19T13:24:25.108Z,12.91
2022-10-19T13:29:39.422Z,12.96
2022-10-19T13:34:38.789Z,12.97
2022-10-19T13:39:39.382Z,12.97
2022-10-19T13:45:04.684Z,13.15
2022-10-19T13:50:26.172Z,13.11
2022-10-19T13:55:47.168Z,12.81
2022-10-19T14:00:55.279Z,12.67
2022-10-19T14:06:17.403Z,12.78
2022-10-19T14:11:25.682Z,13.01
2022-10-19T14:16:24.482Z,12.61
2022-10-19T14:21:34.701Z,13.03
2022-10-19T14:26:34.703Z,13.08
2022-10-19T14:31:37.292Z,13.08
2022-10-19T14:36:39.257Z,12.74
2022-10-19T14:41:38.140Z,12.89
2022-10-19T14:46:37.389Z,12.79
2022-10-19T14:51:45.328Z,12.59
2022-10-19T14:56:56.069Z,12.78
2022-10-19T15:01:58.244Z,12.54
2022-10-19T15:07:00.237Z,12.63
2022-10-19T15:12:08.371Z,12.67
2022-10-19T15:17:32.975Z,12.30
2022-10-19T15:22:35.430Z,12.49
2022-10-19T15:27:45.488Z,12.37
2022-10-19T15:32:49.848Z,12.50
2022-10-19T15:37:50.130Z,12.42
2022-10-19T15:42:49.057Z,12.20
2022-10-19T15:48:15.479Z,12.15
2022-10-19T15:53:18.383Z,12.05
2022-10-19T15:58:17.942Z,12.11
2022-10-19T16:03:17.347Z,11.96
2022-10-19T16:08:16.362Z,11.79
2022-10-19T16:13:15.197Z,11.81
2022-10-19T16:18:16.640Z,11.73
2022-10-19T16:23:15.495Z,11.69
2022-10-19T16:28:14.307Z,11.45
2022-10-19T16:33:13.076Z,11.63
2022-10-19T16:38:12.071Z,11.58
2022-10-19T16:43:10.901Z,11.61
2022-10-19T16:48:12.114Z,11.55
2022-10-19T16:53:11.241Z,11.53
2022-10-19T16:58:09.911Z,11.35
2022-10-19T17:03:08.745Z,11.33
2022-10-19T17:08:09.181Z,10.65
2022-10-19T17:13:07.931Z,10.96
2022-10-19T17:18:06.707Z,10.79
2022-10-19T17:23:05.552Z,10.65
2022-10-19T17:28:04.213Z,10.22
2022-10-19T17:33:03.101Z,9.92
2022-10-19T17:38:01.827Z,9.79
2022-10-19T17:43:00.508Z,9.41
2022-10-19T17:47:59.145Z,9.40
2022-10-19T17:52:58.187Z,9.33
2022-10-19T17:57:56.822Z,9.27
2022-10-19T18:02:55.552Z,8.97
2022-10-19T18:07:54.444Z,8.97
2022-10-19T18:12:53.098Z,8.69
2022-10-19T18:17:51.714Z,8.79
2022-10-19T18:22:50.402Z,8.79
2022-10-19T18:27:49.192Z,8.29
2022-10-19T18:32:51.033Z,8.06
2022-10-19T18:37:49.814Z,8.04
2022-10-19T18:42:48.480Z,7.71
2022-10-19T18:47:47.182Z,7.87
2022-10-19T18:52:45.880Z,7.86
2022-10-19T18:57:44.597Z,7.35
2022-10-19T19:02:46.981Z,7.33
2022-10-19T19:07:46.627Z,7.16
2022-10-19T19:12:45.339Z,7.60
2022-10-19T19:17:44.168Z,7.33
2022-10-19T19:22:42.822Z,7.28
2022-10-19T19:27:41.461Z,7.10
2022-10-19T19:32:41.105Z,6.75
2022-10-19T19:37:39.874Z,9.42
2022-10-19T19:42:38.515Z,10.23
2022-10-19T19:47:37.466Z,7.35
2022-10-19T19:52:40.252Z,7.02
2022-10-19T19:57:39.258Z,6.74
2022-10-19T20:02:39.284Z,6.72
2022-10-19T20:07:38.169Z,6.56
2022-10-19T20:12:37.003Z,6.41
2022-10-19T20:17:36.011Z,6.27
2022-10-19T20:22:35.226Z,6.31
2022-10-19T20:27:37.389Z,6.16
2022-10-19T20:32:36.516Z,6.08
2022-10-19T20:37:35.570Z,6.02
2022-10-19T20:42:34.420Z,5.87
2022-10-19T20:47:33.400Z,5.94
2022-10-19T20:52:33.778Z,5.91
2022-10-19T20:57:32.678Z,5.88
2022-10-19T21:02:31.294Z,6.41
2022-10-19T21:07:30.139Z,5.94
2022-10-19T21:12:28.848Z,5.68
2022-10-19T21:17:27.657Z,5.84
2022-10-19T21:22:26.708Z,5.83
2022-10-19T21:27:25.418Z,5.87
2022-10-19T21:32:24.158Z,5.32
2022-10-19T21:37:23.021Z,5.39
2022-10-19T21:42:21.616Z,5.23
2022-10-19T21:47:20.264Z,5.32
2022-10-19T21:52:18.905Z,5.58
2022-10-19T21:57:17.599Z,5.10
2022-10-19T22:02:16.378Z,5.08
2022-10-19T22:07:15.206Z,5.20
2022-10-19T22:17:17.776Z,5.49
2022-10-19T22:22:16.695Z,5.01
2022-10-19T22:27:15.527Z,5.44
2022-10-19T22:32:14.332Z,5.50
2022-10-19T22:37:13.010Z,5.71
2022-10-19T22:42:11.663Z,5.73
2022-10-19T22:47:10.437Z,5.79
2022-10-19T22:52:09.137Z,5.63
2022-10-19T22:57:08.147Z,5.59
2022-10-19T23:02:07.011Z,5.64
2022-10-19T23:07:05.807Z,5.90
2022-10-19T23:12:04.968Z,6.03
2022-10-19T23:17:03.622Z,6.23
2022-10-19T23:22:02.262Z,5.92
2022-10-19T23:27:00.961Z,5.89
2022-10-19T23:31:59.581Z,6.08
2022-10-19T23:36:58.617Z,6.33
2022-10-19T23:41:57.434Z,6.14
2022-10-19T23:46:56.199Z,6.16
2022-10-19T23:51:54.974Z,6.15
2022-10-19T23:56:53.699Z,5.75
